NCAR-RAP Real-Time Weather Data

Output produced by METARs form (06 May 2021  15:32 UTC)
found at http://weather.rap.ucar.edu/surface/
 
KOSH 061453Z 30004KT 10SM FEW017 10/06 A3011 RMK AO2 SLP198 6//// T01000056 $
KOSH 061353Z 30008KT 10SM OVC075 09/06 A3012 RMK AO2 SLP202 T00890056 $
KOSH 061253Z 00000KT 10SM OVC075 08/06 A3012 RMK AO2 RAE15 SLP201 P0000 T00830056
KOSH 061153Z 26004KT 10SM -RA FEW036 OVC045 07/06 A3012 RMK AO2 RAB12 SLP201 P0001 60006 70006 T00670056 10100 20067 53002
KOSH 061053Z 25005KT 10SM SCT047 OVC055 07/05 A3011 RMK AO2 RAE51 SLP197 P0001 T00670050
KOSH 060953Z AUTO 28004KT 10SM -RA FEW029 FEW047 OVC060 07/05 A3011 RMK AO2 SLP197 P0001 T00670050
KOSH 060853Z AUTO 25003KT 9SM -RA BKN040 OVC050 07/05 A3011 RMK AO2 SLP198 P0002 60003 T00720050 57001
KOSH 060753Z AUTO 26003KT 10SM -RA BKN033 OVC047 07/05 A3012 RMK AO2 SLP200 P0001 T00720050
KOSH 060653Z AUTO 27005KT 10SM -RA OVC043 08/03 A3011 RMK AO2 RAB0555 SLP198 P0000 T00830033
KOSH 060553Z AUTO 29008KT 10SM SCT049 OVC060 10/02 A3011 RMK AO2 SLP198 T01000017 10133 20100 401560033 51000
KOSH 060453Z AUTO 29005KT 10SM BKN065 OVC080 11/00 A3011 RMK AO2 SLP197 T01110000
KOSH 060353Z AUTO 29004KT 10SM BKN070 OVC080 12/M01 A3012 RMK AO2 SLP201 T01171006
KOSH 060253Z 27004KT 10SM OVC085 12/00 A3011 RMK AO2 SLP199 T01170000 53008
KOSH 060153Z 00000KT 10SM OVC100 12/01 A3010 RMK AO2 SLP195 T01170011
KOSH 060053Z 29003KT 10SM OVC100 12/M01 A3009 RMK AO2 SLP194 T01221006